Time;durP1;ratioP1;P1;durP2;ratioP2;P2;SDS_P1;SDS_P2;PMS_P1;PMS_P2;Temp;Humidity;BMP_temperature;BMP_pressure;BME280_temperature;BME280_humidity;BME280_pressure;Samples;Min_cycle;Max_cycle;Signal;HPM_P1;HPM_P2
2020/12/06 00:02:17;;;;;;;37.20;26.80;;;2.20;99.90;;;2.92;95.83;96148.13;5271375;28;20218;-80
2020/12/06 00:04:49;;;;;;;43.20;30.07;;;2.20;99.90;;;2.98;96.45;96150.16;5271016;28;20599;-78
2020/12/06 00:07:21;;;;;;;42.00;30.00;;;2.20;99.90;;;3.01;96.45;96164.59;5270091;28;20200;-80
2020/12/06 00:09:53;;;;;;;36.77;28.60;;;2.30;99.90;;;3.03;96.46;96168.06;5271016;28;20287;-80
2020/12/06 00:12:25;;;;;;;38.37;27.73;;;2.30;99.90;;;3.05;96.37;96167.38;5270563;28;20242;-80
2020/12/06 00:14:58;;;;;;;40.17;29.30;;;2.30;99.90;;;3.04;96.27;96174.88;5260988;28;20217;-80
2020/12/06 00:17:30;;;;;;;37.60;27.53;;;2.30;99.90;;;3.06;96.34;96183.38;5250072;28;20296;-80
2020/12/06 00:20:03;;;;;;;41.63;30.20;;;2.30;99.90;;;3.07;96.37;96182.63;5252906;28;20201;-79
2020/12/06 00:22:35;;;;;;;35.70;27.33;;;2.30;99.90;;;3.09;96.44;96188.59;5250002;28;20196;-80
2020/12/06 00:25:07;;;;;;;42.10;31.37;;;2.30;99.90;;;3.08;96.47;96187.72;5263033;28;20224;-81
2020/12/06 00:27:39;;;;;;;45.53;31.60;;;2.30;99.90;;;3.06;96.52;96173.28;5270892;28;20200;-79
2020/12/06 00:30:12;;;;;;;39.77;28.90;;;2.30;99.90;;;2.98;96.05;96157.72;5269299;28;20200;-79
2020/12/06 00:32:44;;;;;;;38.17;27.43;;;2.20;99.90;;;2.99;96.15;96151.00;5270570;28;20219;-80
2020/12/06 00:35:16;;;;;;;35.87;25.60;;;2.20;99.90;;;3.02;96.45;96148.66;5269440;28;21979;-80
2020/12/06 00:37:48;;;;;;;42.40;28.53;;;2.30;99.90;;;3.00;96.36;96138.47;5270012;28;20249;-79
2020/12/06 00:40:20;;;;;;;39.10;28.07;;;2.20;99.90;;;3.04;96.68;96139.53;5270639;28;20192;-80
2020/12/06 00:42:52;;;;;;;41.83;28.80;;;2.30;99.90;;;3.05;96.58;96141.28;5268152;28;20670;-79
2020/12/06 00:45:25;;;;;;;36.00;26.67;;;2.30;99.90;;;3.06;96.44;96131.28;5270611;28;20202;-80
2020/12/06 00:47:57;;;;;;;40.40;28.97;;;2.30;99.90;;;3.08;96.45;96103.59;5268955;28;20664;-80
2020/12/06 00:50:29;;;;;;;37.60;27.47;;;2.30;99.90;;;3.08;95.70;96112.03;5270495;28;20206;-80
2020/12/06 00:53:01;;;;;;;39.43;28.23;;;2.30;99.90;;;3.09;96.58;96113.78;5268420;28;20219;-80
2020/12/06 00:55:33;;;;;;;40.10;28.73;;;2.30;99.90;;;3.06;95.94;96100.09;5270090;28;20200;-80
2020/12/06 00:58:06;;;;;;;35.00;25.30;;;2.30;99.90;;;3.05;95.88;96101.75;5264885;28;20219;-79
2020/12/06 01:00:39;;;;;;;32.50;24.43;;;2.20;99.90;;;3.01;96.03;96094.81;5270505;28;20200;-78
2020/12/06 01:03:11;;;;;;;31.03;24.30;;;2.20;99.90;;;3.02;95.83;96096.53;5267792;28;20311;-80
2020/12/06 01:05:43;;;;;;;33.60;25.13;;;2.20;99.90;;;3.04;95.71;96112.66;5270101;28;20197;-80
2020/12/06 01:08:15;;;;;;;31.27;23.27;;;2.20;99.90;;;3.00;95.46;96092.19;5255612;28;20578;-81
2020/12/06 01:10:47;;;;;;;36.50;26.07;;;2.10;99.90;;;2.82;95.56;96076.88;5268569;28;20199;-79
2020/12/06 01:13:19;;;;;;;35.50;24.13;;;2.10;99.90;;;2.86;95.53;96091.38;5268968;28;20715;-79
2020/12/06 01:15:51;;;;;;;38.00;26.33;;;2.10;99.90;;;2.87;95.59;96091.50;5269559;28;20203;-79
2020/12/06 01:18:23;;;;;;;37.90;26.00;;;2.10;99.90;;;2.92;95.55;96076.63;5254038;28;20205;-79
2020/12/06 01:20:55;;;;;;;33.40;25.07;;;2.10;99.90;;;2.90;95.80;96063.03;5261148;28;20290;-80
2020/12/06 01:23:27;;;;;;;36.30;23.93;;;2.10;99.90;;;2.88;94.94;96067.13;5268617;28;20234;-78
2020/12/06 01:25:59;;;;;;;33.47;24.50;;;2.10;99.90;;;2.84;95.47;96087.94;5256942;28;20207;-80
2020/12/06 01:28:32;;;;;;;31.77;23.73;;;2.10;99.90;;;2.84;94.99;96085.41;5254816;28;20194;-80
2020/12/06 01:31:06;;;;;;;30.57;23.27;;;2.00;99.90;;;2.81;94.85;96101.22;5268939;28;20220;-80
2020/12/06 01:33:38;;;;;;;34.13;25.60;;;2.00;99.90;;;2.84;94.19;96095.50;5268824;28;20215;-79
2020/12/06 01:36:10;;;;;;;33.10;24.60;;;2.00;99.90;;;2.74;94.67;96089.03;5267897;28;20208;-79
2020/12/06 01:38:42;;;;;;;28.93;22.53;;;1.90;99.90;;;2.62;94.68;96078.25;5261794;28;20197;-80
2020/12/06 01:41:18;;;;;;;31.93;23.73;;;1.80;99.90;;;2.60;95.02;96084.84;5267718;28;20210;-80
2020/12/06 01:43:55;;;;;;;34.23;24.27;;;1.80;99.90;;;2.63;95.17;96083.38;5248711;28;20224;-81
2020/12/06 01:46:28;;;;;;;31.57;23.97;;;1.90;99.90;;;2.64;95.15;96074.16;5249202;28;20231;-80
2020/12/06 01:49:00;;;;;;;31.53;22.70;;;1.90;99.90;;;2.67;95.03;96077.72;5269564;28;20287;-80
2020/12/06 01:51:34;;;;;;;38.47;26.13;;;1.90;99.90;;;2.73;95.00;96092.34;5267806;28;20223;-80
2020/12/06 01:54:06;;;;;;;36.17;25.17;;;1.90;99.90;;;2.70;94.90;96100.59;5267083;28;20579;-80
2020/12/06 01:56:38;;;;;;;34.23;24.00;;;1.90;99.90;;;2.71;95.24;96098.94;5269063;28;20567;-80
2020/12/06 01:59:11;;;;;;;33.73;22.90;;;1.90;99.90;;;2.79;95.78;96124.63;5267052;28;20195;-80
2020/12/06 02:01:55;;;;;;;36.33;25.40;;;2.00;99.90;;;2.80;95.80;96121.31;5266423;28;20282;-80
2020/12/06 02:04:29;;;;;;;33.90;24.00;;;2.00;99.90;;;2.80;95.48;96124.69;5269063;28;20219;-80
2020/12/06 02:07:02;;;;;;;32.63;23.33;;;2.00;99.90;;;2.78;95.15;96120.38;5267245;28;20207;-79
2020/12/06 02:09:35;;;;;;;33.60;23.77;;;2.00;99.90;;;2.82;95.33;96127.31;5268970;28;20207;-80
2020/12/06 02:12:07;;;;;;;34.33;24.80;;;2.00;99.90;;;2.86;96.03;96098.97;5262631;28;20614;-80
2020/12/06 02:14:39;;;;;;;35.23;24.80;;;2.10;99.90;;;2.84;95.46;96098.88;5267961;28;20216;-80
2020/12/06 02:17:12;;;;;;;33.77;24.70;;;2.10;99.90;;;2.90;95.75;96088.28;5267622;28;20651;-79
2020/12/06 02:19:44;;;;;;;43.63;27.73;;;2.10;99.90;;;2.97;95.66;96095.41;5268855;28;20222;-80
2020/12/06 02:22:17;;;;;;;41.53;27.50;;;2.20;99.90;;;3.00;95.85;96085.47;5266973;28;20210;-79
2020/12/06 02:24:49;;;;;;;45.00;30.60;;;2.20;99.90;;;2.98;95.57;96063.50;5268437;28;20649;-80
2020/12/06 02:27:21;;;;;;;45.73;29.87;;;2.20;99.90;;;2.99;95.48;96070.25;5267156;28;20192;-80
2020/12/06 02:29:53;;;;;;;46.90;28.83;;;2.20;99.90;;;3.04;96.09;96061.31;5268218;28;20295;-80
2020/12/06 02:32:25;;;;;;;35.90;25.63;;;2.20;99.90;;;3.01;94.87;96043.47;5267269;28;20211;-81
2020/12/06 02:34:57;;;;;;;41.43;28.97;;;2.10;99.90;;;2.97;95.10;96082.78;5267527;28;20215;-79
2020/12/06 02:37:30;;;;;;;37.23;26.03;;;2.10;99.90;;;2.93;95.05;96056.50;5268103;28;20194;-80
2020/12/06 02:40:02;;;;;;;37.80;26.17;;;2.10;99.90;;;2.92;95.30;96064.88;5267482;28;20291;-80
2020/12/06 02:42:34;;;;;;;34.63;25.13;;;2.10;99.90;;;2.94;95.70;96062.44;5266115;28;20208;-80
2020/12/06 02:45:06;;;;;;;36.00;24.33;;;2.10;99.90;;;2.91;94.98;96049.63;5268133;28;20712;-80
2020/12/06 02:47:38;;;;;;;32.17;23.57;;;2.00;99.90;;;2.86;95.16;96045.97;5266959;28;20702;-80
2020/12/06 02:50:10;;;;;;;33.67;25.07;;;2.00;99.90;;;2.90;94.96;96042.88;5268288;28;20686;-80
2020/12/06 02:52:43;;;;;;;33.20;22.97;;;2.00;99.90;;;2.82;94.93;96032.31;5267366;28;20216;-80
2020/12/06 02:55:15;;;;;;;31.10;23.33;;;2.00;99.90;;;2.76;95.13;96026.94;5268757;28;20210;-81
2020/12/06 02:57:47;;;;;;;32.60;22.60;;;1.90;99.90;;;2.77;95.36;96036.22;5253409;28;20674;-79
2020/12/06 03:00:19;;;;;;;31.90;23.83;;;2.00;99.90;;;2.79;94.61;96023.72;5267674;28;20207;-79
2020/12/06 03:02:51;;;;;;;33.50;24.77;;;2.00;99.90;;;2.79;95.72;96032.16;5267640;28;20620;-81
2020/12/06 03:05:23;;;;;;;38.80;24.80;;;2.00;99.90;;;2.80;94.98;96022.94;5268435;28;20203;-80
2020/12/06 03:07:56;;;;;;;37.10;24.50;;;2.00;99.90;;;2.77;95.20;96017.72;5266823;28;20196;-79
2020/12/06 03:10:28;;;;;;;40.37;25.67;;;2.00;99.90;;;2.75;95.55;96029.34;5257220;28;20196;-80
2020/12/06 03:13:00;;;;;;;36.97;25.93;;;1.90;99.90;;;2.76;95.36;96031.97;5259670;28;20220;-81
2020/12/06 03:15:32;;;;;;;34.33;24.50;;;1.90;99.90;;;2.80;95.31;96022.94;5268287;28;20221;-80
2020/12/06 03:18:04;;;;;;;35.57;24.57;;;1.90;99.90;;;2.72;94.86;96032.59;5267431;28;20207;-80
2020/12/06 03:20:36;;;;;;;37.17;26.50;;;1.90;99.90;;;2.69;95.08;96030.78;5268139;28;20210;-81
2020/12/06 03:23:09;;;;;;;35.40;24.87;;;1.90;99.90;;;2.68;95.25;96043.28;5267267;28;20227;-81
2020/12/06 03:25:41;;;;;;;35.20;24.53;;;1.90;99.90;;;2.69;94.85;96056.00;5268379;28;20203;-80
2020/12/06 03:28:13;;;;;;;38.43;26.03;;;1.90;99.90;;;2.77;95.43;96058.06;5266123;28;20202;-80
2020/12/06 03:30:45;;;;;;;37.57;24.93;;;1.90;99.90;;;2.73;95.23;96051.13;5267932;28;20200;-81
2020/12/06 03:33:17;;;;;;;38.50;25.57;;;1.90;99.90;;;2.75;94.94;96074.75;5267254;28;20235;-79
2020/12/06 03:35:49;;;;;;;37.90;25.13;;;1.80;99.90;;;2.69;94.76;96071.13;5268005;28;20207;-81
2020/12/06 03:38:22;;;;;;;33.63;24.27;;;1.80;99.90;;;2.71;94.63;96084.69;5267082;28;20207;-80
2020/12/06 03:40:53;;;;;;;35.37;22.70;;;1.80;99.90;;;2.73;94.71;96104.09;5267931;28;20207;-80
2020/12/06 03:43:25;;;;;;;36.67;25.03;;;1.80;99.90;;;2.72;94.18;96115.84;5270176;28;20229;-79
2020/12/06 03:45:57;;;;;;;38.17;25.50;;;1.80;99.90;;;2.68;94.64;96097.09;5254982;28;20223;-82
2020/12/06 03:48:30;;;;;;;32.50;23.00;;;1.80;99.90;;;2.68;95.30;96097.09;5251784;28;20203;-81
2020/12/06 03:51:02;;;;;;;32.57;23.87;;;1.90;99.90;;;2.69;94.71;96091.31;5271776;28;20217;-79
2020/12/06 03:53:35;;;;;;;35.67;24.77;;;1.90;99.90;;;2.69;94.95;96060.19;5252992;28;20234;-81
2020/12/06 03:56:07;;;;;;;33.73;24.10;;;1.90;99.90;;;2.69;94.72;96038.34;5270696;28;20207;-78
2020/12/06 03:58:39;;;;;;;34.87;24.30;;;1.90;99.90;;;2.67;95.74;96012.16;5269077;28;20226;-81
2020/12/06 04:01:11;;;;;;;43.83;28.37;;;1.90;99.90;;;2.78;95.11;96016.94;5271121;28;20588;-79
2020/12/06 04:03:43;;;;;;;38.47;25.77;;;2.00;99.90;;;2.77;95.21;96021.09;5270884;28;20227;-79
2020/12/06 04:06:15;;;;;;;46.97;29.90;;;2.00;99.90;;;2.80;95.22;96012.84;5270490;28;20218;-80
2020/12/06 04:08:48;;;;;;;41.63;26.80;;;2.00;99.90;;;2.81;94.79;96060.88;5270576;28;20203;-80
2020/12/06 04:11:20;;;;;;;41.77;28.57;;;1.90;99.90;;;2.85;94.54;96087.13;5270001;28;20208;-79
2020/12/06 04:13:52;;;;;;;43.03;28.00;;;1.90;99.90;;;2.84;94.23;96080.38;5270960;28;20713;-81
2020/12/06 04:16:24;;;;;;;40.97;27.83;;;1.90;99.90;;;2.81;94.69;96078.53;5261983;28;20203;-81
2020/12/06 04:18:56;;;;;;;38.37;25.33;;;1.90;99.90;;;2.80;93.89;96078.44;5250317;28;20199;-80
2020/12/06 04:21:28;;;;;;;34.97;24.93;;;1.90;99.90;;;2.77;94.67;96069.03;5268194;28;20207;-81
2020/12/06 04:24:01;;;;;;;36.33;25.13;;;1.90;99.90;;;2.79;94.39;96056.53;5272309;28;20235;-81
2020/12/06 04:26:33;;;;;;;36.50;25.90;;;2.00;99.90;;;2.79;94.90;96051.47;5269411;28;20199;-78
2020/12/06 04:29:05;;;;;;;37.07;24.87;;;1.90;99.90;;;2.82;95.49;96064.25;5265202;28;20215;-81
2020/12/06 04:31:37;;;;;;;44.17;27.80;;;2.00;99.90;;;2.81;95.15;96080.19;5261461;28;20207;-80
2020/12/06 04:34:09;;;;;;;45.73;32.77;;;2.00;99.90;;;2.84;94.72;96085.41;5264816;28;20304;-80
2020/12/06 04:36:41;;;;;;;48.00;34.40;;;2.00;99.90;;;2.83;94.31;96046.69;5249660;28;20200;-81
2020/12/06 04:39:14;;;;;;;43.70;31.20;;;2.00;99.90;;;2.84;94.75;96040.00;5255818;28;20284;-81
2020/12/06 04:41:46;;;;;;;39.43;26.63;;;2.00;99.90;;;2.84;95.10;96047.56;5270906;28;20572;-81
2020/12/06 04:44:18;;;;;;;40.07;26.83;;;2.00;99.90;;;2.85;94.41;96036.69;5269539;28;20223;-80
2020/12/06 04:46:56;;;;;;;37.13;25.27;;;2.00;99.90;;;2.86;95.02;96033.38;5266787;28;20209;-80
2020/12/06 04:49:43;;;;;;;44.27;28.03;;;2.00;99.90;;;2.90;95.60;96045.38;5257532;28;20195;-81
2020/12/06 04:52:17;;;;;;;45.60;29.60;;;2.10;99.90;;;2.89;94.73;96041.09;5269022;28;20601;-80
2020/12/06 04:54:59;;;;;;;44.47;29.83;;;2.00;99.90;;;2.91;95.23;96037.03;5269461;28;20238;-80
2020/12/06 04:57:30;;;;;;;39.93;26.53;;;2.10;99.90;;;2.92;95.01;96026.16;5267179;28;20200;-80
2020/12/06 05:00:06;;;;;;;38.77;25.87;;;2.10;99.90;;;2.95;94.44;96033.91;5266655;28;20211;-82
2020/12/06 05:02:41;;;;;;;38.90;26.80;;;2.10;99.90;;;2.90;94.97;96037.81;5268909;28;20183;-80
2020/12/06 05:05:14;;;;;;;36.43;25.17;;;2.00;99.90;;;2.86;94.47;96046.88;5269773;28;20202;-80
2020/12/06 05:07:48;;;;;;;37.97;25.17;;;2.00;99.90;;;2.87;94.56;96050.25;5268124;28;20562;-80
2020/12/06 05:10:21;;;;;;;37.20;25.30;;;2.00;99.90;;;2.90;94.49;96063.91;5269834;28;20196;-80
2020/12/06 05:12:53;;;;;;;43.07;27.93;;;2.00;99.90;;;2.90;94.67;96068.09;5259816;28;20224;-81
2020/12/06 05:15:25;;;;;;;39.07;26.30;;;2.00;99.90;;;2.88;94.84;96057.03;5265231;28;20203;-81
2020/12/06 05:17:58;;;;;;;44.93;30.10;;;2.00;99.90;;;2.89;94.61;96059.66;5268234;28;20196;-81
2020/12/06 05:20:32;;;;;;;46.27;29.63;;;2.10;99.90;;;2.91;94.51;96067.31;5269670;28;20196;-80
2020/12/06 05:23:04;;;;;;;42.43;27.97;;;2.10;99.90;;;2.90;95.27;96066.44;5265885;28;20242;-81
2020/12/06 05:25:37;;;;;;;41.03;28.00;;;2.10;99.90;;;2.91;94.63;96063.13;5270363;28;20191;-81
2020/12/06 05:28:12;;;;;;;37.90;25.67;;;2.10;99.90;;;2.94;94.85;96070.84;5267669;28;20204;-81
2020/12/06 05:30:44;;;;;;;43.70;27.47;;;2.10;99.90;;;2.97;95.20;96077.72;5270054;28;20697;-80
2020/12/06 05:33:17;;;;;;;44.87;29.00;;;2.20;99.90;;;3.03;94.43;96083.13;5267529;28;20588;-81
2020/12/06 05:35:49;;;;;;;43.67;28.33;;;2.20;99.90;;;3.04;94.84;96079.84;5269759;28;20200;-80
2020/12/06 05:38:21;;;;;;;46.07;31.27;;;2.20;99.90;;;3.06;94.87;96073.22;5268653;28;20656;-81
2020/12/06 05:40:56;;;;;;;41.10;26.43;;;2.10;99.90;;;3.03;94.68;96069.63;5265525;28;20211;-80
2020/12/06 05:43:29;;;;;;;39.47;26.93;;;2.10;99.90;;;2.99;94.03;96066.09;5265739;28;20665;-81
2020/12/06 05:46:04;;;;;;;43.43;27.97;;;2.10;99.90;;;2.99;94.06;96076.19;5264072;28;20196;-80
2020/12/06 05:48:37;;;;;;;38.67;25.57;;;2.10;99.90;;;2.96;94.03;96081.06;5248777;28;20199;-80
2020/12/06 05:51:11;;;;;;;42.50;28.20;;;2.10;99.90;;;2.93;94.24;96075.84;5266351;28;20206;-81
2020/12/06 05:53:43;;;;;;;38.50;26.73;;;2.10;99.90;;;2.95;94.37;96079.31;5269147;28;20230;-80
2020/12/06 05:56:18;;;;;;;42.87;28.13;;;2.10;99.90;;;2.98;94.85;96063.50;5265611;28;20212;-80
2020/12/06 05:58:52;;;;;;;38.57;26.93;;;2.10;99.90;;;2.99;94.94;96050.94;5269289;28;20191;-79
2020/12/06 06:01:24;;;;;;;45.53;28.83;;;2.20;99.90;;;3.03;94.89;96060.41;5263433;28;20207;-79
2020/12/06 06:04:02;;;;;;;45.37;28.53;;;2.20;99.90;;;3.05;94.57;96061.38;5268487;28;20212;-78
2020/12/06 06:06:41;;;;;;;47.67;30.90;;;2.20;99.90;;;2.99;94.26;96061.03;5266841;28;20291;-79
2020/12/06 06:09:15;;;;;;;39.10;26.37;;;2.10;99.90;;;3.00;94.73;96066.94;5250684;28;20193;-80
2020/12/06 06:12:01;;;;;;;40.63;26.60;;;2.10;99.90;;;3.02;94.40;96071.31;5267648;28;20206;-81
2020/12/06 06:14:34;;;;;;;45.60;28.47;;;2.20;99.90;;;3.06;94.91;96074.84;5249065;28;20222;-79
2020/12/06 06:17:07;;;;;;;41.90;27.30;;;2.20;99.90;;;3.09;94.57;96096.13;5268441;28;20187;-81
2020/12/06 06:19:39;;;;;;;41.93;27.30;;;2.30;99.90;;;3.08;94.65;96091.84;5265453;28;20195;-81
2020/12/06 06:22:13;;;;;;;43.23;28.37;;;2.30;99.90;;;3.07;94.94;96085.06;5267203;28;20207;-80
2020/12/06 06:24:47;;;;;;;45.13;30.33;;;2.20;99.90;;;3.04;94.75;96104.22;5268211;28;20227;-79
2020/12/06 06:27:20;;;;;;;47.80;31.63;;;2.10;99.90;;;3.03;94.83;96123.50;5267560;28;20215;-80
2020/12/06 06:29:53;;;;;;;43.43;28.73;;;2.20;99.90;;;3.05;94.68;96136.22;5269188;28;20598;-81
2020/12/06 06:32:25;;;;;;;40.00;26.30;;;2.10;99.90;;;2.98;94.49;96114.81;5248814;28;20220;-81
2020/12/06 06:34:58;;;;;;;41.57;27.43;;;2.10;99.90;;;2.98;93.96;96109.78;5268973;28;20216;-81
2020/12/06 06:37:32;;;;;;;38.27;25.17;;;2.10;99.90;;;3.00;94.01;96109.84;5266658;28;20204;-80
2020/12/06 06:40:07;;;;;;;45.87;28.10;;;2.10;99.90;;;3.01;94.15;96127.63;5268789;28;20726;-79
2020/12/06 06:42:42;;;;;;;49.17;28.47;;;2.10;99.90;;;3.00;93.77;96135.94;5267946;28;20203;-80
2020/12/06 06:45:14;;;;;;;47.57;30.13;;;2.10;99.90;;;2.99;94.50;96136.75;5267644;28;20195;-78
2020/12/06 06:47:47;;;;;;;49.50;30.27;;;2.10;99.90;;;3.02;94.84;96149.53;5264844;28;20192;-81
2020/12/06 06:50:20;;;;;;;46.23;28.70;;;2.20;99.90;;;3.02;94.11;96136.91;5267517;28;20573;-81
2020/12/06 06:52:56;;;;;;;43.70;27.13;;;2.20;99.90;;;3.04;94.55;96130.31;5266354;28;20227;-81
2020/12/06 06:55:48;;;;;;;43.70;27.37;;;2.20;99.90;;;3.08;94.52;96118.72;5268529;28;20188;-81
2020/12/06 06:58:24;;;;;;;43.93;27.50;;;2.30;99.90;;;3.09;94.42;96121.34;5266075;28;20291;-79
2020/12/06 07:01:16;;;;;;;44.83;26.67;;;2.30;99.90;;;3.11;94.85;96122.28;5247806;28;20200;-81
2020/12/06 07:03:50;;;;;;;50.53;30.23;;;2.30;99.90;;;3.09;94.43;96144.06;5254237;28;20223;-80
2020/12/06 07:06:45;;;;;;;49.87;30.40;;;2.30;99.90;;;3.12;94.68;96159.38;5249732;28;20204;-81
2020/12/06 07:09:23;;;;;;;45.30;29.07;;;2.30;99.90;;;3.11;94.76;96156.75;5246844;28;20208;-78
2020/12/06 07:11:57;;;;;;;50.63;30.47;;;2.30;99.90;;;3.09;94.98;96146.59;5247740;28;20267;-82
2020/12/06 07:14:30;;;;;;;52.80;30.13;;;2.20;99.90;;;3.09;94.25;96154.16;5257913;28;20219;-80
2020/12/06 07:17:02;;;;;;;49.20;30.53;;;2.30;99.90;;;3.09;94.98;96154.16;5250133;28;20198;-81
2020/12/06 07:19:34;;;;;;;44.67;29.47;;;2.30;99.90;;;3.09;95.34;96150.75;5261111;28;20195;-80
2020/12/06 07:22:07;;;;;;;51.93;29.53;;;2.30;99.90;;;3.15;95.27;96159.56;5272340;28;20231;-81
2020/12/06 07:24:39;;;;;;;44.13;27.17;;;2.30;99.90;;;3.17;95.05;96163.03;5270884;28;20231;-81
2020/12/06 07:27:13;;;;;;;45.13;26.47;;;2.40;99.90;;;3.18;94.54;96168.97;5271462;28;20206;-81
2020/12/06 07:29:46;;;;;;;47.73;29.43;;;2.40;99.90;;;3.17;94.70;96152.94;5271418;28;20196;-81
2020/12/06 07:32:20;;;;;;;52.37;31.23;;;2.30;99.90;;;3.20;94.72;96146.31;5271607;28;20683;-80
2020/12/06 07:34:52;;;;;;;52.00;31.70;;;2.40;99.90;;;3.21;94.93;96132.94;5251075;28;20219;-80
2020/12/06 07:37:24;;;;;;;49.47;29.50;;;2.40;99.90;;;3.22;94.87;96117.00;5253833;28;20200;-80
2020/12/06 07:39:56;;;;;;;56.47;32.30;;;2.40;99.90;;;3.23;94.94;96113.69;5265510;28;20197;-81
2020/12/06 07:42:28;;;;;;;62.27;33.17;;;2.40;99.90;;;3.20;95.16;96109.31;5260998;28;20196;-81
2020/12/06 07:45:03;;;;;;;54.40;31.33;;;2.40;99.90;;;3.22;95.02;96120.38;5271691;28;20696;-80
2020/12/06 07:47:36;;;;;;;56.70;31.43;;;2.40;99.90;;;3.24;95.38;96118.81;5262735;28;20814;-81
2020/12/06 07:50:08;;;;;;;52.00;29.97;;;2.40;99.90;;;3.25;95.35;96119.69;5260536;28;20668;-81
2020/12/06 07:52:40;;;;;;;54.13;34.10;;;2.40;99.90;;;3.24;94.95;96144.06;5268531;28;20226;-82
2020/12/06 07:55:13;;;;;;;46.20;28.50;;;2.40;99.90;;;3.38;93.98;96140.66;5271935;28;20324;-81
2020/12/06 07:57:52;;;;;;;51.73;29.67;;;2.30;99.90;;;3.30;93.62;96141.88;5263551;28;20200;-81
2020/12/06 08:00:37;;;;;;;49.50;29.17;;;2.30;99.90;;;3.29;93.33;96146.84;5260241;28;20192;-82
2020/12/06 08:03:14;;;;;;;47.87;28.77;;;2.30;99.90;;;3.17;93.95;96147.88;5257193;28;20224;-81
2020/12/06 08:05:46;;;;;;;45.90;27.57;;;2.20;99.90;;;3.12;93.90;96141.72;5251594;28;20203;-81
2020/12/06 08:08:21;;;;;;;45.97;28.03;;;2.20;99.90;;;3.09;94.19;96154.16;5270520;28;20588;-81
2020/12/06 08:10:56;;;;;;;53.07;29.50;;;2.20;99.90;;;3.11;93.89;96157.63;5265380;28;20210;-80
2020/12/06 08:13:28;;;;;;;48.57;28.60;;;2.30;99.90;;;3.13;94.24;96138.41;5270931;28;20227;-81
2020/12/06 08:16:09;;;;;;;54.80;29.70;;;2.30;99.90;;;3.14;93.91;96142.66;5270565;28;20204;-81
2020/12/06 08:18:41;;;;;;;55.37;29.50;;;2.30;99.90;;;3.17;93.96;96141.97;5265850;28;20259;-81
2020/12/06 08:21:13;;;;;;;56.37;31.10;;;2.40;99.90;;;3.19;94.73;96144.59;5265960;28;20200;-82
2020/12/06 08:23:45;;;;;;;53.80;32.10;;;2.40;99.90;;;3.22;94.29;96154.84;5270331;28;20220;-81
2020/12/06 08:26:17;;;;;;;52.53;30.10;;;2.40;99.90;;;3.24;95.00;96158.34;5271089;28;20207;-81
2020/12/06 08:28:52;;;;;;;61.90;31.97;;;2.40;99.90;;;3.28;95.27;96145.09;5270143;28;20196;-81
2020/12/06 08:31:25;;;;;;;56.33;31.50;;;2.40;99.90;;;3.32;95.02;96139.44;5251493;28;20196;-80
2020/12/06 08:34:11;;;;;;;60.93;32.77;;;2.40;99.90;;;3.30;94.46;96151.13;5266496;28;20220;-79
2020/12/06 08:36:44;;;;;;;60.80;32.13;;;2.40;99.90;;;3.30;94.61;96153.66;5258482;28;20200;-81
2020/12/06 08:39:18;;;;;;;65.30;32.70;;;2.40;99.90;;;3.30;94.26;96153.66;5264927;28;20200;-80
2020/12/06 08:41:50;;;;;;;60.50;31.77;;;2.40;99.90;;;3.31;95.09;96160.44;5273052;28;20203;-81
2020/12/06 08:44:22;;;;;;;54.47;28.93;;;2.50;99.90;;;3.33;94.69;96157.22;5270586;28;20216;-81
2020/12/06 08:46:55;;;;;;;57.67;30.20;;;2.50;99.90;;;3.37;94.62;96145.63;5272031;28;20196;-81
2020/12/06 08:49:27;;;;;;;65.67;30.90;;;2.50;99.90;;;3.37;94.60;96155.72;5269396;28;20210;-81
2020/12/06 08:51:59;;;;;;;56.73;29.77;;;2.50;99.90;;;3.37;94.91;96153.19;5268177;28;20202;-81
2020/12/06 08:54:33;;;;;;;60.40;30.53;;;2.50;99.90;;;3.43;94.83;96145.97;5270408;28;20224;-80
2020/12/06 08:57:09;;;;;;;51.77;28.97;;;2.50;99.90;;;3.45;94.70;96138.50;5270412;28;20563;-80
2020/12/06 08:59:43;;;;;;;58.23;30.40;;;2.50;99.90;;;3.48;93.89;96142.03;5271080;28;20202;-81
2020/12/06 09:02:23;;;;;;;63.57;31.17;;;2.60;99.90;;;3.51;94.20;96139.69;5270380;28;20205;-80
2020/12/06 09:04:55;;;;;;;63.23;31.03;;;2.60;99.90;;;3.52;94.54;96151.56;5269904;28;20596;-81
2020/12/06 09:07:27;;;;;;;60.20;30.67;;;2.60;99.90;;;3.64;94.35;96170.69;5268848;28;20208;-81
2020/12/06 09:09:59;;;;;;;65.23;33.77;;;2.60;99.90;;;3.69;93.80;96174.34;5270293;28;20207;-81
2020/12/06 09:12:33;;;;;;;57.43;33.07;;;2.70;99.90;;;3.67;93.67;96168.34;5269502;28;20197;-80
2020/12/06 09:15:07;;;;;;;63.47;35.03;;;2.70;99.90;;;3.68;93.70;96157.44;5269890;28;20221;-80
2020/12/06 09:17:40;;;;;;;63.80;34.83;;;2.70;99.90;;;3.69;94.32;96154.13;5268511;28;20202;-80
2020/12/06 09:20:12;;;;;;;59.83;33.27;;;2.80;99.90;;;3.69;94.18;96154.13;5251569;28;20676;-80
2020/12/06 09:22:44;;;;;;;57.83;32.23;;;2.80;99.90;;;3.74;94.16;96137.56;5262231;28;20205;-80
2020/12/06 09:25:16;;;;;;;54.13;30.40;;;2.80;99.90;;;3.71;93.86;96127.28;5270931;28;20202;-82
2020/12/06 09:27:48;;;;;;;57.43;30.77;;;2.80;99.90;;;3.76;93.38;96106.56;5270976;28;20477;-80
2020/12/06 09:30:20;;;;;;;52.10;28.50;;;2.70;99.90;;;3.80;93.80;96100.88;5271557;28;20204;-80
2020/12/06 09:32:52;;;;;;;58.43;30.00;;;2.90;99.90;;;3.82;93.92;96106.88;5271081;28;20230;-80
2020/12/06 09:35:24;;;;;;;53.47;29.40;;;2.90;99.90;;;3.96;93.17;96110.16;5270916;28;20205;-81
2020/12/06 09:37:56;;;;;;;58.60;30.23;;;3.00;99.90;;;3.93;93.22;96126.81;5266035;28;20213;-82
2020/12/06 09:40:28;;;;;;;59.67;31.90;;;3.00;99.90;;;3.93;93.55;96140.31;5266761;28;20195;-81
2020/12/06 09:43:01;;;;;;;61.07;33.03;;;3.00;99.90;;;3.97;93.39;96159.03;5268691;28;20191;-81
2020/12/06 09:45:33;;;;;;;62.30;33.20;;;3.00;99.90;;;3.96;93.49;96155.66;5270120;28;20200;-82
2020/12/06 09:48:08;;;;;;;62.03;32.63;;;3.00;99.90;;;3.99;93.39;96154.94;5249835;28;20231;-81
2020/12/06 09:50:40;;;;;;;67.00;35.83;;;3.00;99.90;;;4.04;93.01;96158.59;5262684;28;20195;-80
2020/12/06 09:53:12;;;;;;;56.87;33.67;;;3.10;99.90;;;4.10;92.98;96163.13;5268713;28;20691;-80
2020/12/06 09:55:45;;;;;;;63.20;34.10;;;3.10;99.90;;;4.13;92.95;96155.69;5251805;28;20198;-80
2020/12/06 09:58:17;;;;;;;56.63;34.83;;;3.10;99.90;;;4.17;92.77;96155.06;5250667;28;20204;-81
2020/12/06 10:00:49;;;;;;;59.27;34.13;;;3.10;99.90;;;4.12;92.89;96143.81;5266529;28;20207;-80
2020/12/06 10:03:22;;;;;;;57.43;31.57;;;3.10;99.90;;;4.15;93.22;96143.97;5263442;28;20222;-79
2020/12/06 10:05:54;;;;;;;58.00;31.27;;;3.20;99.90;;;4.14;92.96;96134.66;5262883;28;20209;-81
2020/12/06 10:08:31;;;;;;;61.23;31.07;;;3.20;99.90;;;4.17;92.96;96115.47;5268977;28;20190;-80
2020/12/06 10:11:03;;;;;;;59.20;30.40;;;3.20;99.90;;;4.18;92.78;96119.75;5250691;28;20451;-80
2020/12/06 10:13:35;;;;;;;56.57;29.73;;;3.20;99.90;;;4.16;93.08;96123.00;5255155;28;20234;-78
2020/12/06 10:16:07;;;;;;;56.20;30.93;;;3.20;99.90;;;4.23;92.77;96137.69;5267292;28;20203;-80
2020/12/06 10:18:40;;;;;;;56.47;29.70;;;3.20;99.90;;;4.24;92.64;96125.13;5262583;28;20188;-80
2020/12/06 10:21:13;;;;;;;59.63;33.50;;;3.20;99.90;;;4.22;92.74;96128.38;5264866;28;20209;-80
2020/12/06 10:23:46;;;;;;;54.23;30.73;;;3.20;99.90;;;4.29;92.67;96140.53;5288968;22;20234;-77
2020/12/06 10:26:18;;;;;;;60.03;32.13;;;3.30;99.90;;;4.36;92.03;96147.66;5262261;28;20219;-77
2020/12/06 10:28:50;;;;;;;54.63;29.47;;;3.30;99.90;;;4.37;91.75;96146.88;5269706;28;20196;-79
2020/12/06 10:31:22;;;;;;;51.77;29.93;;;3.30;99.90;;;4.37;91.72;96153.59;5266503;28;20196;-78
2020/12/06 10:33:54;;;;;;;55.33;31.37;;;3.30;99.90;;;4.36;91.74;96149.34;5266137;28;20216;-78
2020/12/06 10:36:26;;;;;;;54.27;30.07;;;3.30;99.90;;;4.36;91.80;96160.31;5261008;28;20203;-77
2020/12/06 10:38:58;;;;;;;56.80;31.33;;;3.30;99.90;;;4.39;92.21;96157.94;5259710;28;20208;-77
2020/12/06 10:41:30;;;;;;;54.07;30.93;;;3.30;99.90;;;4.55;90.99;96159.63;5268534;28;20206;-77
2020/12/06 10:44:02;;;;;;;50.37;30.23;;;3.40;99.90;;;4.50;90.81;96156.00;5269156;28;20346;-78
2020/12/06 10:46:34;;;;;;;62.00;31.50;;;3.40;99.90;;;4.48;91.16;96157.56;5264857;28;20219;-80